El tiempo en ÁFRICA

meteoro

Re: El tiempo en ÁFRICA

Mensaje por meteoro »

En la foto que subiste, Ariel, daría la impresión que está empezando el monzón en el HN, más precisamente en la zona del Golfo de Guinea (por ejemplo Nigeria, Ghana, Costa de Marfil, que juegan el mundial), debido al desplazamiento hacia el Norte de la ITCZ y el ingreso en el continente. También está bastante activo en Etiopía (al Este de Africa), quizás por la misma razón, aunque en esta zona ayuda mucho la orografía.

Hay una banda de nubes en el medio del Sahara (digamos el Ctro de Argelia), que está hace varios días, incluso con ISOL EMBD CB en el mapa significativo, es decir CUMULONIMBOS EMBEBIDOS AISLADOS. No creo que llueva gran cosa, quizás unas pocas gotas y tampoco creo que sea algo orográfico. Pero los modelos dan 40 de agua precipitable y lluvias por dos o tres días, tipo 20 o 30 mm en total.

En las cartas de altura se ve como el JET se bifurca y bueno, eso quizás permita explicar porque hay ascensos y precipitaciones. Pero no me meto mucho con ese tema, lo dejo para los "dinámicos".

TAmbién hay unas nubes en el Golfo Pérsico, no sé como llegaron hasta allí.
Te doy letra para tu tema "acción en la península arábiga"
Avatar de Usuario
Adrimet
Mensajes: 7
Registrado: Mar Abr 13, 2010 4:41 pm

LLUVIA EN EL SAHARA

Mensaje por Adrimet »

Les mando la descripción de la ciudad-oasis en el Sahara (45 mil hab), donde anteayer y ayer llovió, aparentemente trazas y podrían caer 20 mm en los próximos días (ahí mismo o en la zona) según el GFS.

http://en.wikipedia.org/wiki/In_Salah

Incluye una tabla climática. La máxima promedio de abril es 33 grados y en julio 45. La lluvia anual 17 mm.

slds
Avatar de Usuario
Adrimet
Mensajes: 7
Registrado: Mar Abr 13, 2010 4:41 pm

LLUVIA EN EL SAHARA II

Mensaje por Adrimet »

y el último METAR DE IN SALAH (DAUI) y también de ADRAR (DAUA), que es otro oasis de ARGELIA, que está un poco al Oeste.

METAR DAUI 161800Z 24012KT CAVOK 27/19 Q1015=
METAR DAUA 161800Z 21026KT 8000 DRSA SCT046 BKN233 28/18 Q1012=

Leyeron bien, los rocíos son de 18-20 grados más o menos, situación que se mantiene en los últimos 3 días.
Los vientos bastante fuertes, tipo 25 nudos, soplando fijo del SW.
Es probable (para pensar) que la humedad venga directo del Atlántico (favorecida por un flujo intenso de viento) que está mucho más cálido que lo normal, como bien muestra METSUL en la imagen que subieron en la sección pronóstico

El código DRSA es arena (SA) levantada por el viento a poca altura (DR). Si es a cierta altura (por encima del nivel del observador si mal no recuerdo) se pone BL. Ambos códigos creo que se usan también con nieve o polvo, mientras que si hay tempestad de arena, se usa directamente SS (DS si es tempestad de polvo).

Vean este dato, de anoche:
SPECI DAUA 160045Z 26040KT 1000 SS VV/// 25/16 Q1011=
Lindo día para hacer un asado (de camello)
Avatar de Usuario
arielmich
Mensajes: 5554
Registrado: Sab Nov 21, 2009 11:20 am
Ubicación: Quilmes Oeste, Bs. As.

Re: El tiempo en ÁFRICA

Mensaje por arielmich »

Interesantisimo todo, muchas gracias y ojala que esas trazas de lluvia se transformen en fabuloso cb´s. Total soñar no cuesta nada! ;)
Siempre presente!
meteoro

Tormenta en el SAHARA

Mensaje por meteoro »

Les dejo una imagen reciente de tormentas al SE de Argelia y algunos metares interesantes.

Djanet está en el SE de Arabia.
Vean la Tempestad de Arena (SS) y el cambio de masa de aire (como sube el rocío) y dirección del viento, además del cielo invisible VV/// y la visibilidad de 100 mts.
El lugar que reportó TORMENTA (de relámpagos y truenos obviamente) se llama ILLISI y está al SE de Arabia también
No tiene METAR aparentemente, pero el synop da 23/18

METAR DAAJ 181500Z 29010KT 5000 NSC 33/03 Q1017=
METAR DAAJ 181600Z 30015KT 2000 DRSA NSC 33/02 Q1017=
METAR DAAJ 181700Z 30015KT 2000 DRSA NSC 32/02 Q1017=
METAR DAAJ 181800Z 30020KT 1000 DRSA NSC 31/01 Q1018=
METAR DAAJ 181900Z 33018KT 1000 DRSA NSC 30/02 Q1019=
SPECI DAAJ 182040Z 30032KT 0100 SS VV/// 27/09 Q1023=
METAR DAAJ 182200Z 03028KT 0100 SS VV/// 23/11 Q1022=
METAR DAAJ 182300Z 36020KT 1500 DRSA SCT046 SCT100 24/11 Q1021=
No tiene los permisos requeridos para ver los archivos adjuntos a este mensaje.
meteoro

Re: El tiempo en ÁFRICA

Mensaje por meteoro »

al SUDESTE DE ARGELIA (no de Arabia), perdón
meteoro

LLUVIAS EN SUDÁFRICA

Mensaje por meteoro »

Hoy llovió prácticamente en toda Sudáfrica, incluyendo a Johannesburgo, como puede verse a continuación.
Fijense la temperatura y las ráfagas de viento (30 nudos)
METAR FAJS 182000Z 30015G30KT 3000 TSRA SCT045 13/12 Q1026 NOSIG=

La mayoría de las localidades reportaron 5 o 10 mm.
Ellos también tienen un importante JET de 120-140 nudos, junto con un FF que parece relativamente débil

En el Este la masa de aire es cálida y bien húmeda DURBAN, la máxima de hoy 26
METAR FADN 190200Z 03003KT CAVOK 22/19 Q1010 NOSIG=

En el Sur está más fresco: PORT ELIZABETH, la máxima de hoy 22 grados
METAR FAPE 190200Z 23007KT 9999 FEW049 14/13 Q1010 NOSIG=
meteoro

Infierno en la Tierra

Mensaje por meteoro »

Región que registró hoy las temperaturas más altas del planeta
Infierno en la tierra.GIF
De izquierda a derecha MALÍ-NIGER-CHAD-SUDÁN
Sudán hace honor a su nombre (ahi la gente suda mucho), el resto no sé

N´DJAMENA (capital de Chad), hoy 45º7
5 días consecutivos con máximas mayores a 45 (y mínimas de 27)
22 días consecutivos con máximas mayores a 40.
Humedad promedio 10%
Nada de lluvia
Pocas personas con AIRE ACONDICIONADO
máximas de africa.GIF
El TOP 20 mundial son todas ciudades de la región y también de la India, que se encuentra a una latitud similar, pero en Asia. En Africa, corresponde a la región del SAHEL, que limita al Norte con el SAHARA propiamente y al Sur con la región de SABANAS que recibe lluvias monzónicas más abundantes. Ambas (Sahel y parte de India) son quizás las regiones más vulnerables a los CAMBIOS CLIMÁTICOS, debido a la pobreza, sobrepoblación y escasez de recursos.

Otra cosa: es interesante seguir lo que sucede en el Oeste de Africa en los próximos meses, teniendo en cuenta que la región es generadora de ONDAS DEL ESTE y en consecuencia, de ciclones tropicales en el Atlántico
No tiene los permisos requeridos para ver los archivos adjuntos a este mensaje.
Avatar de Usuario
jic
Mensajes: 2152
Registrado: Dom Jul 26, 2009 10:27 pm
Ubicación: Mar del Plata

Re: El tiempo en ÁFRICA

Mensaje por jic »

Increible esas temperaturas, totalmente inhóspito, más teniendo en cuenta las condiciones de vida que reinan en esa zona

Carlos, una pregunta, vos sos meteorólogo? te veo posteando bastante últimamente, pero no me acuerdo bien de vos, jaja

Salu2!
LU3DEI
meteoro

Re: El tiempo en ÁFRICA

Mensaje por meteoro »

Lic Carlos Nadale
Me falta postearme en off-topic, con foto, lugar de trabajo y todo. Lo voy a hacer en estos días
Mi especialidad es clima, pero sigo de cerca todas las vetas de la ciencia atmosférica.
Slds